Parrish, Florida
Current Conditions -  °F | °C
As of 10:53 AM on Wednesday 22 Oct 2014 (Local Time) from KSRQ Reporting Station
Clear Clear  
Wind Chill: 79°   Ceiling: Unl
Heat Index: 81°   Visibility: 10mi
Dew Point: 66°   Wind: 12mph
Humidity: 64%   Direction: 80°E
Pressure: 29.98"   Gusts: NA
Location:  27.59°N, 82.42°W
Report Text: KSRQ 221453Z 08010KT 10SM CLR 26/19 A2998 RMK AO2 SLP151 T02610189 50011
Loading
Personal Weather Stations






























Interactive Weather Map
Tropical Storm Tracking
New forecast layout! Learn more

10-Day Weather Forecast

Advertisements
Track Severe Weather on mobile